< Typhoon 199613 1996 Season Typhoon 199615 >
Typhoon 199614 (ORSON)
General InformationTrack Information on Google MapsDetailed Wind InformationList of All Images || NewsDisaster Info.ResourceGoogle EarthGE AnimationAtom FeedGeoJSON
Detalied Best Track (Time Zone = UTC)
Year Month Day Hour Lat. Long. Pressure (hPa) Wind (kt) Class Image Chart
1996 8 20 18 19.4 143.1 1006 0 2 Image Chart
1996 8 21 00 20.2 142.9 1008 0 2 Image Chart
1996 8 21 06 20.8 142.9 1006 0 2 Image Chart
1996 8 21 12 21.4 142.9 1006 0 2 Image Chart
1996 8 21 18 21.8 142.9 1006 0 2 Image Chart
1996 8 22 00 22.1 142.9 1006 0 2 Image Chart
1996 8 22 06 22.5 142.9 1004 0 2 Image Chart
1996 8 22 12 22.9 142.8 1004 0 2 Image Chart
1996 8 22 18 23.0 142.5 1002 0 2 Image Chart
1996 8 23 00 23.3 142.3 1000 35 3 Image Chart
1996 8 23 06 23.6 142.0 998 35 3 Image Chart
1996 8 23 12 23.7 142.1 998 35 3 Image Chart
1996 8 23 18 23.7 142.4 996 35 3 Image Chart
1996 8 24 00 23.9 143.0 990 45 3 Image Chart
1996 8 24 06 24.2 143.7 985 50 4 Image Chart
1996 8 24 12 24.3 144.6 980 55 4 Image Chart
1996 8 24 18 24.3 145.5 975 60 4 Image Chart
1996 8 25 00 24.4 146.5 965 70 5 Image Chart
1996 8 25 06 24.7 147.4 960 75 5 Image Chart
1996 8 25 12 24.9 148.1 955 75 5 Image Chart
1996 8 25 18 25.1 148.9 955 75 5 Image Chart
1996 8 26 00 25.5 149.6 955 75 5 Image Chart
1996 8 26 06 25.8 150.1 955 75 5 Image Chart
1996 8 26 12 26.1 150.6 955 75 5 Image Chart
1996 8 26 18 26.2 151.0 955 75 5 Image Chart
1996 8 27 00 26.2 151.3 960 70 5 Image Chart
1996 8 27 06 26.2 151.5 960 70 5 Image Chart
1996 8 27 12 26.1 151.7 965 70 5 Image Chart
1996 8 27 18 26.2 151.9 965 70 5 Image Chart
1996 8 28 00 26.3 151.8 970 65 5 Image Chart
1996 8 28 06 26.4 151.6 975 60 4 Image Chart
1996 8 28 12 26.4 151.3 975 60 4 Image Chart
1996 8 28 18 26.4 150.7 975 60 4 Image Chart
1996 8 29 00 26.4 150.2 980 55 4 Image Chart
1996 8 29 06 26.7 149.5 985 50 4 Image Chart
1996 8 29 12 27.0 148.9 985 50 4 Image Chart
1996 8 29 18 27.2 148.3 990 45 3 Image Chart
1996 8 30 00 27.5 147.7 990 45 3 Image Chart
1996 8 30 06 27.8 147.2 990 45 3 Image Chart
1996 8 30 12 28.2 146.5 990 45 3 Image Chart
1996 8 30 18 28.6 145.8 990 45 3 Image Chart
1996 8 31 00 29.0 145.1 990 45 3 Image Chart
1996 8 31 06 29.4 144.5 985 50 4 Image Chart
1996 8 31 12 29.8 144.0 985 50 4 Image Chart
1996 8 31 18 30.3 143.6 985 50 4 Image Chart
1996 9 1 00 30.8 143.3 985 50 4 Image Chart
1996 9 1 06 31.6 143.2 985 50 4 Image Chart
1996 9 1 12 32.7 143.9 990 45 3 Image Chart
1996 9 1 18 33.9 144.7 990 45 3 Image Chart
1996 9 2 00 35.2 145.6 992 45 3 Image Chart
1996 9 2 06 36.8 147.1 992 45 3 Image Chart
1996 9 2 12 38.5 149.2 992 45 3 Image Chart
1996 9 2 18 40.0 151.5 992 45 3 Image Chart
1996 9 3 00 41.0 153.5 992 45 3 Image Chart
1996 9 3 06 42.1 156.6 992 45 3 Image Chart
1996 9 3 12 43.1 160.6 992 0 6 Image Chart
1996 9 3 18 44.0 165.0 990 0 6 Image Chart
1996 9 4 00 44.0 169.5 984 0 6 Image Chart
1996 9 4 06 44.5 172.5 986 0 6 Image Chart
1996 9 4 12 45.0 177.0 988 0 6 Image Chart
1996 9 4 18 47.0 182.0 988 0 6 Image Chart
Japan Meteorological Agency Best Track Data | Correction Date : 1997-01-07
< Typhoon 199613 1996 Season Typhoon 199615 >

Help